DAAGLDPL

Guest
Details From DAAG - Alger Houari Boumediene
To LDPL - Pula
Flight Number -
Tags Generated
Created
Modified
Stats Distance 693 nm / 1,284 km
Max Altitude 0 ft / 0 m
Waypoints 4
Social Downloads 0
Likes 0
Share VATSIM

Download

Looking for another format? Having issues loading an existing format? Contact us
Advertisement - Login to hide

Notes

Generated

Route

DAAG GILET PUL LDPL

ID Type Via Altitude Latitude Longitude Leg Dist Tot Dist Heading (true) Name
O DAAG APT - 0 ft / 0 m 36.69213˚ 3.17083˚ - 0 nm - -
GILET FIX - 0 ft / 0 m 42.37528˚ 10.21917˚ 471 nm 471 nm 42° / 46° -
PUL VOR - 0 ft / 0 m 44.89237˚ 13.91813˚ 220 nm 692 nm 46° / 48° PULA VOR-DME
O LDPL APT - 0 ft / 0 m 44.89313˚ 13.90359˚ 0 nm 693 nm 274° / 274° -

Altitude Profile

Advertisement - Login to hide

Weather


0- 5 10 15 20 25 30 35+ Temperature / ° C

Clouds and Precipitation
Forecast for 2018-05-26 06:00 UTC. Updated an hour ago

Ground ~20,000 ft ~40,000 ft Winds

DAAG

Details ICAO DAAG (ALG)
Name Alger Houari Boumediene
Region Algeria
Timezone Africa/Algiers (UTC+1.0)
Stats Elevation 82 ft / 25 m (AMSL)
Location 36.697521° 3.213079°
Runways 2
Magnetic Variation 1.103° E

METAR

DAAG 260600Z 00000KT 9000 FEW020 16/16 Q1014

Decode

TAF

TAF TAF DAAG 260500Z 2606/2706 VRB02KT 8000 FEW020 PROB30 TEMPO 2606/2608 3000 BR BECMG 2609/2612 35010KT PROB30 TEMPO 2613/2618 17010KT 5000 HZ FEW026TCU BECMG 2618/2621 VRB02KT

Decode

Departure Runways

ID Width Length Bearing (true) Bearing (mag) Surface Threshold Offset Overrun Length
05 197 ft / 60 m 11,459 ft / 3,493 m 52.87° 51.77° Asphalt 0 ft / 0 m 0 ft / 0 m
09 148 ft / 45 m 11,442 ft / 3,487 m 91.75° 90.65° Asphalt 0 ft / 0 m 1,017 ft / 310 m
23 197 ft / 60 m 11,459 ft / 3,493 m 232.89° 231.79° Asphalt 0 ft / 0 m 0 ft / 0 m
27 148 ft / 45 m 11,442 ft / 3,487 m 271.78° 270.68° Asphalt 0 ft / 0 m 0 ft / 0 m

LDPL

Details ICAO LDPL (PUY)
Name Pula
Region Croatia
Timezone Europe/Zagreb (UTC+2.0)
Stats Elevation 274 ft / 84 m (AMSL)
Location 44.893531° 13.922156°
Runways 1
Magnetic Variation 3.523° E

METAR

LDPL 260600Z 06008KT CAVOK 22/15 Q1018 NOSIG

Decode

TAF

TAF LDPL 260525Z 2606/2706 06010KT CAVOK TX27/2610Z TN18/2703Z BECMG 2611/2613 27006KT BECMG 2619/2621 06006KT

Decode

Destination Runways

ID Width Length Bearing (true) Bearing (mag) Surface Threshold Offset Overrun Length
09 148 ft / 45 m 9,601 ft / 2,926 m 88.24° 84.72° Asphalt 250 ft / 76 m 0 ft / 0 m
27 148 ft / 45 m 9,601 ft / 2,926 m 268.27° 264.75° Asphalt 250 ft / 76 m 0 ft / 0 m

Approach Navaids

Runway Type Ident Frequency Range Bearing (true) Bearing (mag) Slope Elevation
27 Localiser IPU 111.50 MHz 25 nm / 46 km 268.28° 264.76° - 157 ft / 48 m (AMSL)
27 Glidescope IPU 111.50 MHz 25 nm / 46 km 268.28° 264.76° 3.20° 243 ft / 74 m (AMSL)